sensor_id;sensor_type;location;lat;lon;timestamp;pressure;altitude;pressure_sealevel;temperature;humidity
46456;BME280;64052;47.466;9.094;2023-04-07T00:02:37;95773.53;;;12.48;44.05
46456;BME280;64052;47.466;9.094;2023-04-07T00:07:39;95765.53;;;12.30;44.37
46456;BME280;64052;47.466;9.094;2023-04-07T00:12:53;95762.34;;;12.16;44.43
46456;BME280;64052;47.466;9.094;2023-04-07T00:17:54;95765.72;;;12.08;45.17
46456;BME280;64052;47.466;9.094;2023-04-07T00:22:56;95752.47;;;12.18;44.57
46456;BME280;64052;47.466;9.094;2023-04-07T00:27:57;95760.56;;;12.17;44.56
46456;BME280;64052;47.466;9.094;2023-04-07T00:32:59;95752.94;;;12.04;45.04
46456;BME280;64052;47.466;9.094;2023-04-07T00:38:01;95746.97;;;12.02;44.59
46456;BME280;64052;47.466;9.094;2023-04-07T00:43:02;95733.88;;;12.10;42.24
46456;BME280;64052;47.466;9.094;2023-04-07T00:48:04;95724.88;;;12.31;40.78
46456;BME280;64052;47.466;9.094;2023-04-07T00:53:06;95727.41;;;12.32;40.63
46456;BME280;64052;47.466;9.094;2023-04-07T00:58:09;95722.66;;;12.36;41.55
46456;BME280;64052;47.466;9.094;2023-04-07T01:03:19;95710.41;;;12.35;42.64
46456;BME280;64052;47.466;9.094;2023-04-07T01:13:48;95699.41;;;12.02;43.67
46456;BME280;64052;47.466;9.094;2023-04-07T01:19:08;95691.88;;;11.97;44.08
46456;BME280;64052;47.466;9.094;2023-04-07T01:29:39;95665.56;;;11.95;43.38
46456;BME280;64052;47.466;9.094;2023-04-07T01:34:44;95662.41;;;12.02;44.41
46456;BME280;64052;47.466;9.094;2023-04-07T01:39:48;95663.09;;;12.04;43.35
46456;BME280;64052;47.466;9.094;2023-04-07T01:44:50;95658.38;;;11.98;42.71
46456;BME280;64052;47.466;9.094;2023-04-07T01:49:53;95659.75;;;12.02;42.23
46456;BME280;64052;47.466;9.094;2023-04-07T01:54:55;95653.22;;;11.96;42.39
46456;BME280;64052;47.466;9.094;2023-04-07T01:59:58;95647.78;;;11.98;41.56
46456;BME280;64052;47.466;9.094;2023-04-07T02:05:04;95645.84;;;12.00;40.65
46456;BME280;64052;47.466;9.094;2023-04-07T02:10:12;95633.91;;;11.86;40.36
46456;BME280;64052;47.466;9.094;2023-04-07T02:15:17;95632.28;;;11.75;40.66
46456;BME280;64052;47.466;9.094;2023-04-07T02:20:20;95632.19;;;11.57;41.14
46456;BME280;64052;47.466;9.094;2023-04-07T02:25:30;95634.16;;;11.55;41.69
46456;BME280;64052;47.466;9.094;2023-04-07T02:30:32;95617.28;;;11.65;41.13
46456;BME280;64052;47.466;9.094;2023-04-07T02:35:34;95623.56;;;11.64;40.87
46456;BME280;64052;47.466;9.094;2023-04-07T02:40:36;95603.50;;;11.72;40.80
46456;BME280;64052;47.466;9.094;2023-04-07T02:45:37;95604.22;;;11.64;40.91
46456;BME280;64052;47.466;9.094;2023-04-07T02:50:39;95588.53;;;11.62;40.82
46456;BME280;64052;47.466;9.094;2023-04-07T02:55:40;95587.56;;;11.63;40.32
46456;BME280;64052;47.466;9.094;2023-04-07T03:00:42;95579.94;;;11.50;40.39
46456;BME280;64052;47.466;9.094;2023-04-07T03:05:48;95578.16;;;11.51;41.03
46456;BME280;64052;47.466;9.094;2023-04-07T03:10:49;95575.97;;;11.27;40.78
46456;BME280;64052;47.466;9.094;2023-04-07T03:15:57;95578.34;;;11.20;41.16
46456;BME280;64052;47.466;9.094;2023-04-07T03:21:03;95568.09;;;11.17;41.48
46456;BME280;64052;47.466;9.094;2023-04-07T03:26:05;95564.19;;;11.11;41.41
46456;BME280;64052;47.466;9.094;2023-04-07T03:31:10;95547.53;;;11.10;41.31
46456;BME280;64052;47.466;9.094;2023-04-07T03:36:11;95539.91;;;11.07;41.55
46456;BME280;64052;47.466;9.094;2023-04-07T03:41:14;95528.25;;;11.10;41.81
46456;BME280;64052;47.466;9.094;2023-04-07T03:46:18;95530.47;;;11.05;41.85
46456;BME280;64052;47.466;9.094;2023-04-07T03:51:20;95522.41;;;11.06;41.84
46456;BME280;64052;47.466;9.094;2023-04-07T03:56:26;95520.22;;;10.92;41.27
46456;BME280;64052;47.466;9.094;2023-04-07T04:01:31;95524.13;;;10.88;41.62
46456;BME280;64052;47.466;9.094;2023-04-07T04:06:40;95523.97;;;10.89;41.79
46456;BME280;64052;47.466;9.094;2023-04-07T04:11:51;95518.69;;;10.89;41.91
46456;BME280;64052;47.466;9.094;2023-04-07T04:16:53;95526.34;;;10.82;42.09
46456;BME280;64052;47.466;9.094;2023-04-07T04:22:17;95525.66;;;10.80;41.69
46456;BME280;64052;47.466;9.094;2023-04-07T04:27:26;95525.78;;;10.79;42.16
46456;BME280;64052;47.466;9.094;2023-04-07T04:32:37;95529.38;;;10.98;42.55
46456;BME280;64052;47.466;9.094;2023-04-07T04:37:39;95534.53;;;10.99;42.46
46456;BME280;64052;47.466;9.094;2023-04-07T04:42:44;95526.31;;;11.02;42.21
46456;BME280;64052;47.466;9.094;2023-04-07T04:47:47;95528.41;;;10.99;42.15
46456;BME280;64052;47.466;9.094;2023-04-07T04:52:50;95528.41;;;10.99;41.91
46456;BME280;64052;47.466;9.094;2023-04-07T04:57:56;95528.81;;;10.94;42.32
46456;BME280;64052;47.466;9.094;2023-04-07T05:03:08;95521.28;;;11.19;41.48
46456;BME280;64052;47.466;9.094;2023-04-07T05:08:13;95508.75;;;11.21;41.75
46456;BME280;64052;47.466;9.094;2023-04-07T05:13:16;95508.50;;;11.24;42.35
46456;BME280;64052;47.466;9.094;2023-04-07T05:18:19;95505.56;;;11.27;42.60
46456;BME280;64052;47.466;9.094;2023-04-07T05:23:21;95499.88;;;11.22;42.96
46456;BME280;64052;47.466;9.094;2023-04-07T05:28:25;95491.94;;;11.22;41.93
46456;BME280;64052;47.466;9.094;2023-04-07T05:33:29;95487.53;;;11.22;41.28
46456;BME280;64052;47.466;9.094;2023-04-07T05:38:31;95478.38;;;11.17;41.61
46456;BME280;64052;47.466;9.094;2023-04-07T05:43:40;95494.34;;;11.15;41.68
46456;BME280;64052;47.466;9.094;2023-04-07T05:48:42;95488.63;;;11.20;41.90
46456;BME280;64052;47.466;9.094;2023-04-07T05:53:44;95492.38;;;11.27;41.67
46456;BME280;64052;47.466;9.094;2023-04-07T05:58:45;95489.56;;;11.38;41.41
46456;BME280;64052;47.466;9.094;2023-04-07T06:03:48;95488.56;;;11.39;41.60
46456;BME280;64052;47.466;9.094;2023-04-07T06:08:56;95488.41;;;11.41;43.23
46456;BME280;64052;47.466;9.094;2023-04-07T06:13:58;95498.94;;;11.51;44.29
46456;BME280;64052;47.466;9.094;2023-04-07T06:19:00;95489.31;;;11.60;44.90
46456;BME280;64052;47.466;9.094;2023-04-07T06:24:03;95490.25;;;11.69;45.03
46456;BME280;64052;47.466;9.094;2023-04-07T06:29:04;95501.97;;;11.56;45.50
46456;BME280;64052;47.466;9.094;2023-04-07T06:34:06;95494.72;;;11.58;44.90
46456;BME280;64052;47.466;9.094;2023-04-07T06:39:07;95488.28;;;11.71;43.92
46456;BME280;64052;47.466;9.094;2023-04-07T06:44:09;95481.19;;;11.71;43.88
46456;BME280;64052;47.466;9.094;2023-04-07T06:49:10;95477.47;;;11.64;44.97
46456;BME280;64052;47.466;9.094;2023-04-07T06:54:12;95475.38;;;11.67;44.02
46456;BME280;64052;47.466;9.094;2023-04-07T06:59:13;95476.78;;;11.62;43.24
46456;BME280;64052;47.466;9.094;2023-04-07T07:04:15;95478.25;;;11.74;43.03
46456;BME280;64052;47.466;9.094;2023-04-07T07:09:17;95476.16;;;11.78;42.35
46456;BME280;64052;47.466;9.094;2023-04-07T07:14:18;95480.16;;;11.82;41.71
46456;BME280;64052;47.466;9.094;2023-04-07T07:19:19;95486.38;;;11.91;42.29
46456;BME280;64052;47.466;9.094;2023-04-07T07:24:21;95480.75;;;12.04;42.23
46456;BME280;64052;47.466;9.094;2023-04-07T07:29:22;95486.41;;;12.09;42.91
46456;BME280;64052;47.466;9.094;2023-04-07T07:34:24;95491.06;;;12.43;40.55
46456;BME280;64052;47.466;9.094;2023-04-07T07:39:26;95477.50;;;12.64;40.23
46456;BME280;64052;47.466;9.094;2023-04-07T07:44:27;95480.88;;;12.93;39.83
46456;BME280;64052;47.466;9.094;2023-04-07T07:49:32;95479.44;;;13.25;40.89
46456;BME280;64052;47.466;9.094;2023-04-07T07:54:33;95474.13;;;13.52;39.33
46456;BME280;64052;47.466;9.094;2023-04-07T07:59:35;95479.13;;;13.63;39.50
46456;BME280;64052;47.466;9.094;2023-04-07T08:04:36;95485.88;;;13.92;38.36
46456;BME280;64052;47.466;9.094;2023-04-07T08:09:38;95488.22;;;14.03;37.51
46456;BME280;64052;47.466;9.094;2023-04-07T08:14:40;95499.03;;;14.10;35.88
46456;BME280;64052;47.466;9.094;2023-04-07T08:19:41;95494.81;;;13.91;37.95
46456;BME280;64052;47.466;9.094;2023-04-07T08:30:05;95486.53;;;13.94;36.46
46456;BME280;64052;47.466;9.094;2023-04-07T08:35:08;95492.72;;;14.19;35.98
46456;BME280;64052;47.466;9.094;2023-04-07T08:40:10;95496.25;;;14.45;36.99
46456;BME280;64052;47.466;9.094;2023-04-07T08:45:12;95494.78;;;14.67;38.15
46456;BME280;64052;47.466;9.094;2023-04-07T08:50:16;95489.47;;;14.51;37.23
46456;BME280;64052;47.466;9.094;2023-04-07T08:55:17;95491.66;;;14.64;38.28
46456;BME280;64052;47.466;9.094;2023-04-07T09:00:19;95490.97;;;14.61;37.28
46456;BME280;64052;47.466;9.094;2023-04-07T09:05:21;95486.34;;;14.64;37.01
46456;BME280;64052;47.466;9.094;2023-04-07T09:10:23;95492.97;;;14.68;36.88
46456;BME280;64052;47.466;9.094;2023-04-07T09:15:28;95491.16;;;14.60;37.17
46456;BME280;64052;47.466;9.094;2023-04-07T09:21:00;95485.50;;;14.71;37.88
46456;BME280;64052;47.466;9.094;2023-04-07T09:31:21;95492.84;;;14.86;38.61
46456;BME280;64052;47.466;9.094;2023-04-07T09:36:23;95500.47;;;14.97;38.22
46456;BME280;64052;47.466;9.094;2023-04-07T09:41:26;95501.28;;;15.06;37.20
46456;BME280;64052;47.466;9.094;2023-04-07T09:46:29;95503.25;;;15.12;36.82
46456;BME280;64052;47.466;9.094;2023-04-07T09:51:30;95501.75;;;15.18;36.73
46456;BME280;64052;47.466;9.094;2023-04-07T09:56:32;95508.56;;;15.12;35.56
46456;BME280;64052;47.466;9.094;2023-04-07T10:01:34;95507.75;;;15.03;33.86
46456;BME280;64052;47.466;9.094;2023-04-07T10:06:36;95510.09;;;15.07;35.14
46456;BME280;64052;47.466;9.094;2023-04-07T10:11:38;95511.75;;;15.08;34.85
46456;BME280;64052;47.466;9.094;2023-04-07T10:16:41;95504.78;;;15.07;35.46
46456;BME280;64052;47.466;9.094;2023-04-07T10:21:43;95519.38;;;15.19;36.22
46456;BME280;64052;47.466;9.094;2023-04-07T10:26:50;95517.88;;;15.08;37.33
46456;BME280;64052;47.466;9.094;2023-04-07T10:31:53;95515.03;;;15.26;36.24
46456;BME280;64052;47.466;9.094;2023-04-07T10:37:10;95520.53;;;14.92;37.94
46456;BME280;64052;47.466;9.094;2023-04-07T10:53:11;95531.75;;;14.52;36.04
46456;BME280;64052;47.466;9.094;2023-04-07T10:58:26;95535.78;;;14.73;36.36
46456;BME280;64052;47.466;9.094;2023-04-07T11:03:29;95544.75;;;14.80;36.96
46456;BME280;64052;47.466;9.094;2023-04-07T11:08:35;95540.59;;;14.78;36.90
46456;BME280;64052;47.466;9.094;2023-04-07T11:13:45;95543.53;;;14.50;38.73
46456;BME280;64052;47.466;9.094;2023-04-07T11:18:47;95542.44;;;14.17;40.32
46456;BME280;64052;47.466;9.094;2023-04-07T11:23:48;95546.22;;;14.07;40.94
46456;BME280;64052;47.466;9.094;2023-04-07T11:28:54;95542.75;;;14.14;40.44
46456;BME280;64052;47.466;9.094;2023-04-07T11:34:03;95549.56;;;14.17;41.09
46456;BME280;64052;47.466;9.094;2023-04-07T11:39:16;95548.41;;;14.11;41.78
46456;BME280;64052;47.466;9.094;2023-04-07T11:44:18;95553.38;;;14.14;41.82
46456;BME280;64052;47.466;9.094;2023-04-07T11:49:20;95559.22;;;14.34;41.21
46456;BME280;64052;47.466;9.094;2023-04-07T11:54:21;95554.66;;;14.53;41.18
46456;BME280;64052;47.466;9.094;2023-04-07T11:59:24;95554.16;;;14.58;39.75
46456;BME280;64052;47.466;9.094;2023-04-07T12:04:26;95560.63;;;14.55;41.30
46456;BME280;64052;47.466;9.094;2023-04-07T12:09:32;95564.59;;;14.51;41.17
46456;BME280;64052;47.466;9.094;2023-04-07T12:14:34;95564.63;;;14.68;41.71
46456;BME280;64052;47.466;9.094;2023-04-07T12:19:36;95565.47;;;14.77;40.60
46456;BME280;64052;47.466;9.094;2023-04-07T12:24:37;95566.75;;;14.64;41.89
46456;BME280;64052;47.466;9.094;2023-04-07T12:29:39;95580.50;;;14.51;42.45
46456;BME280;64052;47.466;9.094;2023-04-07T12:34:40;95582.59;;;14.31;42.71
46456;BME280;64052;47.466;9.094;2023-04-07T12:39:42;95578.56;;;14.10;41.88
46456;BME280;64052;47.466;9.094;2023-04-07T12:44:43;95582.81;;;14.03;42.42
46456;BME280;64052;47.466;9.094;2023-04-07T12:49:45;95582.03;;;13.76;43.47
46456;BME280;64052;47.466;9.094;2023-04-07T12:54:49;95579.78;;;13.89;43.44
46456;BME280;64052;47.466;9.094;2023-04-07T12:59:50;95577.72;;;14.10;42.84
46456;BME280;64052;47.466;9.094;2023-04-07T13:04:52;95591.88;;;13.92;42.64
46456;BME280;64052;47.466;9.094;2023-04-07T13:09:53;95595.69;;;13.89;43.40
46456;BME280;64052;47.466;9.094;2023-04-07T13:14:55;95595.69;;;13.89;43.33
46456;BME280;64052;47.466;9.094;2023-04-07T13:20:02;95606.81;;;13.67;44.23
46456;BME280;64052;47.466;9.094;2023-04-07T13:25:04;95592.28;;;13.44;46.00
46456;BME280;64052;47.466;9.094;2023-04-07T13:30:06;95598.38;;;13.45;45.90
46456;BME280;64052;47.466;9.094;2023-04-07T13:35:08;95591.97;;;13.29;45.51
46456;BME280;64052;47.466;9.094;2023-04-07T13:40:10;95596.06;;;13.05;45.53
46456;BME280;64052;47.466;9.094;2023-04-07T13:45:11;95590.63;;;13.07;45.76
46456;BME280;64052;47.466;9.094;2023-04-07T13:50:13;95597.81;;;13.15;44.65
46456;BME280;64052;47.466;9.094;2023-04-07T13:55:14;95596.91;;;13.24;45.73
46456;BME280;64052;47.466;9.094;2023-04-07T14:00:16;95598.84;;;13.40;44.91
46456;BME280;64052;47.466;9.094;2023-04-07T14:05:18;95600.88;;;13.46;45.37
46456;BME280;64052;47.466;9.094;2023-04-07T14:10:19;95605.72;;;13.51;44.70
46456;BME280;64052;47.466;9.094;2023-04-07T14:15:21;95605.66;;;13.25;46.20
46456;BME280;64052;47.466;9.094;2023-04-07T14:20:22;95598.38;;;13.45;45.94
46456;BME280;64052;47.466;9.094;2023-04-07T14:25:26;95589.19;;;13.84;44.21
46456;BME280;64052;47.466;9.094;2023-04-07T14:30:28;95594.50;;;13.84;43.42
46456;BME280;64052;47.466;9.094;2023-04-07T14:35:30;95593.75;;;14.00;42.73
46456;BME280;64052;47.466;9.094;2023-04-07T14:40:31;95588.50;;;14.08;43.76
46456;BME280;64052;47.466;9.094;2023-04-07T14:45:33;95584.22;;;14.24;43.24
46456;BME280;64052;47.466;9.094;2023-04-07T14:50:35;95586.31;;;14.55;42.47
46456;BME280;64052;47.466;9.094;2023-04-07T14:55:36;95584.63;;;14.54;42.04
46456;BME280;64052;47.466;9.094;2023-04-07T15:00:38;95573.38;;;14.52;42.93
46456;BME280;64052;47.466;9.094;2023-04-07T15:05:39;95580.66;;;14.50;41.97
46456;BME280;64052;47.466;9.094;2023-04-07T15:10:41;95578.09;;;14.23;41.72
46456;BME280;64052;47.466;9.094;2023-04-07T15:15:42;95585.09;;;14.32;41.01
46456;BME280;64052;47.466;9.094;2023-04-07T15:20:44;95584.56;;;14.21;42.01
46456;BME280;64052;47.466;9.094;2023-04-07T15:25:46;95595.31;;;14.19;42.71
46456;BME280;64052;47.466;9.094;2023-04-07T15:30:47;95594.75;;;14.07;43.58
46456;BME280;64052;47.466;9.094;2023-04-07T15:35:49;95592.66;;;14.19;43.55
46456;BME280;64052;47.466;9.094;2023-04-07T15:40:51;95602.47;;;14.27;43.03
46456;BME280;64052;47.466;9.094;2023-04-07T15:45:54;95609.19;;;14.04;43.15
46456;BME280;64052;47.466;9.094;2023-04-07T15:50:55;95613.28;;;13.99;42.45
46456;BME280;64052;47.466;9.094;2023-04-07T15:55:57;95623.78;;;13.82;43.45
46456;BME280;64052;47.466;9.094;2023-04-07T16:00:59;95620.59;;;13.70;43.07
46456;BME280;64052;47.466;9.094;2023-04-07T16:06:00;95626.00;;;13.60;42.98
46456;BME280;64052;47.466;9.094;2023-04-07T16:11:02;95635.16;;;13.30;43.22
46456;BME280;64052;47.466;9.094;2023-04-07T16:16:03;95640.00;;;13.34;44.16
46456;BME280;64052;47.466;9.094;2023-04-07T16:21:06;95643.94;;;13.48;43.44
46456;BME280;64052;47.466;9.094;2023-04-07T16:26:07;95646.59;;;13.48;43.49
46456;BME280;64052;47.466;9.094;2023-04-07T16:31:09;95657.56;;;13.54;43.77
46456;BME280;64052;47.466;9.094;2023-04-07T16:36:10;95666.53;;;13.43;44.28
46456;BME280;64052;47.466;9.094;2023-04-07T16:41:12;95663.06;;;13.42;43.94
46456;BME280;64052;47.466;9.094;2023-04-07T16:46:14;95670.03;;;13.25;44.87
46456;BME280;64052;47.466;9.094;2023-04-07T16:51:16;95677.31;;;13.23;44.82
46456;BME280;64052;47.466;9.094;2023-04-07T16:56:19;95676.59;;;13.21;44.55
46456;BME280;64052;47.466;9.094;2023-04-07T17:01:21;95688.16;;;13.02;44.61
46456;BME280;64052;47.466;9.094;2023-04-07T17:06:22;95698.47;;;12.87;45.51
46456;BME280;64052;47.466;9.094;2023-04-07T17:11:24;95697.00;;;12.74;45.57
46456;BME280;64052;47.466;9.094;2023-04-07T17:16:25;95705.47;;;12.78;45.74
46456;BME280;64052;47.466;9.094;2023-04-07T17:21:27;95710.38;;;12.45;46.53
46456;BME280;64052;47.466;9.094;2023-04-07T17:26:28;95716.69;;;12.62;46.70
46456;BME280;64052;47.466;9.094;2023-04-07T17:31:30;95727.03;;;12.55;46.65
46456;BME280;64052;47.466;9.094;2023-04-07T17:36:31;95726.38;;;12.71;46.97
46456;BME280;64052;47.466;9.094;2023-04-07T17:41:33;95734.38;;;12.61;46.86
46456;BME280;64052;47.466;9.094;2023-04-07T17:46:35;95732.13;;;12.67;46.80
46456;BME280;64052;47.466;9.094;2023-04-07T17:51:36;95744.41;;;12.58;46.68
46456;BME280;64052;47.466;9.094;2023-04-07T17:56:38;95755.53;;;12.61;46.86
46456;BME280;64052;47.466;9.094;2023-04-07T18:01:39;95757.34;;;12.61;47.38
46456;BME280;64052;47.466;9.094;2023-04-07T18:06:41;95772.00;;;12.55;47.17
46456;BME280;64052;47.466;9.094;2023-04-07T18:11:42;95770.50;;;12.43;47.47
46456;BME280;64052;47.466;9.094;2023-04-07T18:16:44;95777.75;;;12.31;47.96
46456;BME280;64052;47.466;9.094;2023-04-07T18:21:46;95777.72;;;12.41;48.00
46456;BME280;64052;47.466;9.094;2023-04-07T18:26:47;95787.19;;;12.43;48.26
46456;BME280;64052;47.466;9.094;2023-04-07T18:31:49;95793.44;;;12.42;47.99
46456;BME280;64052;47.466;9.094;2023-04-07T18:36:51;95807.47;;;12.53;47.53
46456;BME280;64052;47.466;9.094;2023-04-07T18:41:55;95812.19;;;12.59;47.61
46456;BME280;64052;47.466;9.094;2023-04-07T18:46:57;95817.22;;;12.62;47.85
46456;BME280;64052;47.466;9.094;2023-04-07T18:51:58;95817.22;;;12.62;47.66
46456;BME280;64052;47.466;9.094;2023-04-07T18:57:00;95819.44;;;12.57;47.59
46456;BME280;64052;47.466;9.094;2023-04-07T19:02:01;95831.97;;;12.55;47.76
46456;BME280;64052;47.466;9.094;2023-04-07T19:07:03;95834.47;;;12.46;48.02
46456;BME280;64052;47.466;9.094;2023-04-07T19:12:04;95839.91;;;12.55;48.25
46456;BME280;64052;47.466;9.094;2023-04-07T19:17:06;95844.50;;;12.53;47.89
46456;BME280;64052;47.466;9.094;2023-04-07T19:22:07;95846.47;;;12.50;48.29
46456;BME280;64052;47.466;9.094;2023-04-07T19:27:09;95847.28;;;12.51;47.91
46456;BME280;64052;47.466;9.094;2023-04-07T19:32:10;95855.63;;;12.46;48.91
46456;BME280;64052;47.466;9.094;2023-04-07T19:37:12;95863.06;;;12.43;48.61
46456;BME280;64052;47.466;9.094;2023-04-07T19:42:14;95861.22;;;12.43;48.94
46456;BME280;64052;47.466;9.094;2023-04-07T19:47:16;95865.13;;;12.39;48.43
46456;BME280;64052;47.466;9.094;2023-04-07T19:52:17;95866.50;;;12.43;48.03
46456;BME280;64052;47.466;9.094;2023-04-07T19:57:19;95865.81;;;12.41;48.21
46456;BME280;64052;47.466;9.094;2023-04-07T20:02:20;95871.81;;;12.43;48.67
46456;BME280;64052;47.466;9.094;2023-04-07T20:07:22;95877.50;;;12.48;48.39
46456;BME280;64052;47.466;9.094;2023-04-07T20:12:23;95879.59;;;12.45;49.05
46456;BME280;64052;47.466;9.094;2023-04-07T20:17:25;95876.25;;;12.53;48.72
46456;BME280;64052;47.466;9.094;2023-04-07T20:22:26;95878.88;;;12.53;49.66
46456;BME280;64052;47.466;9.094;2023-04-07T20:27:28;95879.63;;;12.35;50.10
46456;BME280;64052;47.466;9.094;2023-04-07T20:32:29;95884.34;;;12.41;50.29
46456;BME280;64052;47.466;9.094;2023-04-07T20:37:31;95899.63;;;12.37;49.18
46456;BME280;64052;47.466;9.094;2023-04-07T20:42:33;95886.00;;;12.42;48.57
46456;BME280;64052;47.466;9.094;2023-04-07T20:47:34;95894.63;;;12.44;48.89
46456;BME280;64052;47.466;9.094;2023-04-07T20:52:36;95894.34;;;12.47;48.57
46456;BME280;64052;47.466;9.094;2023-04-07T20:57:37;95900.03;;;12.53;48.81
46456;BME280;64052;47.466;9.094;2023-04-07T21:02:39;95903.78;;;12.50;48.41
46456;BME280;64052;47.466;9.094;2023-04-07T21:07:41;95911.47;;;12.33;48.80
46456;BME280;64052;47.466;9.094;2023-04-07T21:12:42;95905.78;;;12.18;49.22
46456;BME280;64052;47.466;9.094;2023-04-07T21:17:44;95900.09;;;12.13;49.26
46456;BME280;64052;47.466;9.094;2023-04-07T21:22:45;95900.78;;;12.05;49.44
46456;BME280;64052;47.466;9.094;2023-04-07T21:27:47;95905.03;;;11.97;49.58
46456;BME280;64052;47.466;9.094;2023-04-07T21:32:48;95907.41;;;11.90;50.04
46456;BME280;64052;47.466;9.094;2023-04-07T21:37:50;95904.75;;;11.90;50.52
46456;BME280;64052;47.466;9.094;2023-04-07T21:42:51;95901.00;;;11.83;50.26
46456;BME280;64052;47.466;9.094;2023-04-07T21:47:53;95903.09;;;11.79;50.51
46456;BME280;64052;47.466;9.094;2023-04-07T21:52:54;95902.66;;;11.74;51.04
46456;BME280;64052;47.466;9.094;2023-04-07T21:57:56;95906.69;;;11.78;51.49
46456;BME280;64052;47.466;9.094;2023-04-07T22:02:57;95911.53;;;11.73;51.10
46456;BME280;64052;47.466;9.094;2023-04-07T22:07:59;95904.75;;;11.80;51.56
46456;BME280;64052;47.466;9.094;2023-04-07T22:13:01;95906.72;;;11.88;51.18
46456;BME280;64052;47.466;9.094;2023-04-07T22:18:02;95904.22;;;11.86;51.13
46456;BME280;64052;47.466;9.094;2023-04-07T22:23:04;95910.59;;;11.84;51.12
46456;BME280;64052;47.466;9.094;2023-04-07T22:28:05;95911.00;;;11.89;50.63
46456;BME280;64052;47.466;9.094;2023-04-07T22:33:07;95911.16;;;11.97;50.76
46456;BME280;64052;47.466;9.094;2023-04-07T22:38:10;95915.88;;;11.93;51.01
46456;BME280;64052;47.466;9.094;2023-04-07T22:43:12;95915.47;;;11.88;51.18
46456;BME280;64052;47.466;9.094;2023-04-07T22:48:13;95927.16;;;11.86;51.67
46456;BME280;64052;47.466;9.094;2023-04-07T22:53:15;95923.53;;;11.77;51.42
46456;BME280;64052;47.466;9.094;2023-04-07T22:58:16;95924.34;;;11.67;52.37
46456;BME280;64052;47.466;9.094;2023-04-07T23:03:18;95927.78;;;11.58;51.88
46456;BME280;64052;47.466;9.094;2023-04-07T23:08:19;95928.75;;;11.57;52.59
46456;BME280;64052;47.466;9.094;2023-04-07T23:13:21;95922.34;;;11.50;52.93
46456;BME280;64052;47.466;9.094;2023-04-07T23:18:22;95924.03;;;11.51;52.59
46456;BME280;64052;47.466;9.094;2023-04-07T23:23:24;95932.38;;;11.56;52.65
46456;BME280;64052;47.466;9.094;2023-04-07T23:28:25;95935.41;;;11.51;52.36
46456;BME280;64052;47.466;9.094;2023-04-07T23:33:29;95932.91;;;11.50;52.81
46456;BME280;64052;47.466;9.094;2023-04-07T23:38:31;95932.91;;;11.50;52.86
46456;BME280;64052;47.466;9.094;2023-04-07T23:43:32;95947.00;;;11.29;53.12
46456;BME280;64052;47.466;9.094;2023-04-07T23:48:34;95936.16;;;11.22;53.66
46456;BME280;64052;47.466;9.094;2023-04-07T23:53:35;95941.44;;;11.22;53.16
46456;BME280;64052;47.466;9.094;2023-04-07T23:58:37;95932.53;;;11.23;52.78
